Time;durP1;ratioP1;P1;durP2;ratioP2;P2;SDS_P1;SDS_P2;PMS_P1;PMS_P2;Temp;Humidity;BMP_temperature;BMP_pressure;BME280_temperature;BME280_humidity;BME280_pressure;Samples;Min_cycle;Max_cycle;Signal;HPM_P1;HPM_P2
2022/09/10 00:01:42;;;;;;;1.70;1.60;;;15.20;99.90;;;;;;5031331;28;20670;-68
2022/09/10 00:04:13;;;;;;;4.63;2.37;;;15.20;99.90;;;;;;5031258;28;20237;-68
2022/09/10 00:06:38;;;;;;;2.50;1.40;;;15.10;99.90;;;;;;5030832;28;20682;-69
2022/09/10 00:09:05;;;;;;;2.23;1.47;;;15.10;99.90;;;;;;5030976;28;20422;-67
2022/09/10 00:11:31;;;;;;;1.97;1.83;;;15.10;99.90;;;;;;5030944;28;20650;-68
2022/09/10 00:14:02;;;;;;;1.80;1.70;;;15.00;99.90;;;;;;5031059;28;20434;-68
2022/09/10 00:16:28;;;;;;;1.63;1.53;;;15.00;99.90;;;;;;5031270;28;20727;-67
2022/09/10 00:18:56;;;;;;;1.60;1.50;;;15.00;99.90;;;;;;5031727;28;20811;-68
2022/09/10 00:21:21;;;;;;;2.47;1.80;;;15.00;99.90;;;;;;5031102;28;20537;-68
2022/09/10 00:23:47;;;;;;;2.47;2.00;;;15.00;99.90;;;;;;5031203;28;20506;-68
2022/09/10 00:26:18;;;;;;;3.90;1.87;;;14.90;99.90;;;;;;5031193;28;20175;-68
2022/09/10 00:28:44;;;;;;;2.50;1.70;;;14.90;99.90;;;;;;5031204;28;20415;-69
2022/09/10 00:31:10;;;;;;;1.77;1.67;;;14.90;99.90;;;;;;5031149;28;20411;-69
2022/09/10 00:33:36;;;;;;;2.20;2.00;;;14.80;99.90;;;;;;5031007;28;20214;-69
2022/09/10 00:36:04;;;;;;;1.93;1.27;;;14.80;99.90;;;;;;5031264;28;20885;-68
2022/09/10 00:38:30;;;;;;;1.93;1.83;;;14.80;99.90;;;;;;5031020;28;20195;-69
2022/09/10 00:41:07;;;;;;;2.83;1.47;;;14.70;99.90;;;;;;5031266;28;20536;-68
2022/09/10 00:43:49;;;;;;;2.13;1.73;;;14.70;99.90;;;;;;5032471;28;20465;-69
2022/09/10 00:46:30;;;;;;;2.13;1.93;;;14.70;99.90;;;;;;5017014;28;20754;-69
2022/09/10 00:48:58;;;;;;;1.93;1.47;;;14.70;99.90;;;;;;5034785;28;20441;-69
2022/09/10 00:51:25;;;;;;;1.63;1.53;;;14.70;99.90;;;;;;5034414;28;20479;-69
2022/09/10 00:53:52;;;;;;;1.97;1.77;;;14.70;99.90;;;;;;5034201;28;20450;-69
2022/09/10 00:56:17;;;;;;;2.10;1.70;;;14.60;99.90;;;;;;5034134;28;20434;-68
2022/09/10 00:58:44;;;;;;;3.03;1.80;;;14.60;99.90;;;;;;5034139;28;20941;-68
2022/09/10 01:01:10;;;;;;;2.30;2.10;;;14.50;99.90;;;;;;5034006;28;20203;-69
2022/09/10 01:03:37;;;;;;;2.93;1.80;;;14.50;99.90;;;;;;5034081;28;20434;-68
2022/09/10 01:06:04;;;;;;;3.07;1.73;;;14.50;99.90;;;;;;5033925;28;20160;-69
2022/09/10 01:08:30;;;;;;;2.13;1.93;;;14.50;99.90;;;;;;5016283;28;20414;-68
2022/09/10 01:11:05;;;;;;;2.97;2.20;;;14.50;99.90;;;;;;5034179;28;20558;-68
2022/09/10 01:13:53;;;;;;;2.63;1.80;;;14.50;99.90;;;;;;5033935;28;20927;-68
2022/09/10 01:16:29;;;;;;;4.30;2.50;;;14.50;99.90;;;;;;5034072;28;20754;-69
2022/09/10 01:19:31;;;;;;;1.77;1.67;;;14.40;99.90;;;;;;5034009;28;20431;-68
2022/09/10 01:22:15;;;;;;;3.10;2.40;;;14.50;99.90;;;;;;5033852;28;20485;-67
2022/09/10 01:24:55;;;;;;;4.70;2.60;;;14.40;99.90;;;;;;5033966;28;20480;-68
2022/09/10 01:27:33;;;;;;;2.70;2.10;;;14.30;99.90;;;;;;5034223;28;20398;-67
2022/09/10 01:30:07;;;;;;;3.10;2.10;;;14.30;99.90;;;;;;5033819;28;20426;-68
2022/09/10 01:32:49;;;;;;;2.53;2.10;;;14.30;99.90;;;;;;5033686;28;20429;-69
2022/09/10 01:35:16;;;;;;;3.90;2.77;;;14.30;99.90;;;;;;5033694;28;20501;-68
2022/09/10 01:37:51;;;;;;;2.53;2.33;;;14.30;99.90;;;;;;5033706;28;20398;-68
2022/09/10 01:40:17;;;;;;;2.73;2.03;;;14.30;99.90;;;;;;5033947;28;20445;-68
2022/09/10 01:42:44;;;;;;;3.47;2.77;;;14.20;99.90;;;;;;5033820;28;20469;-68
2022/09/10 01:45:12;;;;;;;2.20;1.93;;;14.30;99.90;;;;;;5033437;28;20824;-68
2022/09/10 01:47:47;;;;;;;3.87;2.40;;;14.30;99.90;;;;;;5033722;28;20415;-68
2022/09/10 01:50:33;;;;;;;4.00;2.10;;;14.20;99.90;;;;;;5033500;28;20423;-68
2022/09/10 01:53:27;;;;;;;7.87;2.33;;;14.20;99.90;;;;;;5033754;28;20394;-68
2022/09/10 01:56:35;;;;;;;2.40;2.20;;;14.20;99.90;;;;;;5064852;22;20486;-74
2022/09/10 01:59:28;;;;;;;2.67;2.20;;;14.20;99.90;;;;;;5028750;28;20505;-73
2022/09/10 02:02:00;;;;;;;5.80;3.00;;;14.20;99.90;;;;;;5034055;28;20480;-74
2022/09/10 02:04:27;;;;;;;6.00;2.70;;;14.20;99.90;;;;;;5033885;28;20437;-74
2022/09/10 02:06:55;;;;;;;3.50;2.50;;;14.20;99.90;;;;;;5033753;28;20398;-74
2022/09/10 02:09:21;;;;;;;3.83;2.90;;;14.10;99.90;;;;;;5033548;28;20410;-73
2022/09/10 02:11:49;;;;;;;3.73;3.10;;;14.10;99.90;;;;;;5034038;28;20406;-73
2022/09/10 02:14:16;;;;;;;2.50;2.30;;;14.10;99.90;;;;;;5033768;28;21021;-73
2022/09/10 02:16:46;;;;;;;2.70;2.50;;;14.10;99.90;;;;;;5033767;28;20403;-73
2022/09/10 02:19:14;;;;;;;3.77;2.13;;;14.10;99.90;;;;;;5033823;28;20409;-73
2022/09/10 02:21:39;;;;;;;2.23;2.03;;;14.10;99.90;;;;;;5033471;28;20442;-73
2022/09/10 02:24:08;;;;;;;2.80;2.20;;;14.00;99.90;;;;;;5033766;28;20424;-72
2022/09/10 02:26:38;;;;;;;3.67;3.00;;;14.00;99.90;;;;;;5033607;28;20163;-73
2022/09/10 02:29:05;;;;;;;2.43;2.07;;;14.00;99.90;;;;;;5033613;28;20439;-73
2022/09/10 02:31:31;;;;;;;2.53;2.30;;;14.00;99.90;;;;;;5033538;28;20421;-72
2022/09/10 02:33:56;;;;;;;2.47;2.27;;;14.00;99.90;;;;;;5033399;28;20940;-73
2022/09/10 02:36:24;;;;;;;3.07;2.80;;;14.00;99.90;;;;;;5033270;28;20174;-73
2022/09/10 02:38:51;;;;;;;4.33;2.60;;;14.10;99.90;;;;;;5033624;28;20187;-73
2022/09/10 02:41:17;;;;;;;2.60;2.40;;;14.00;99.90;;;;;;5033426;28;20452;-73
2022/09/10 02:43:44;;;;;;;2.93;2.53;;;14.10;99.90;;;;;;5033406;28;20407;-73
2022/09/10 02:46:09;;;;;;;4.93;2.17;;;14.00;99.90;;;;;;5033170;28;20666;-73
2022/09/10 02:48:35;;;;;;;3.23;2.50;;;14.00;99.90;;;;;;5033495;28;20413;-73
2022/09/10 02:51:01;;;;;;;3.50;3.20;;;13.90;99.90;;;;;;5033819;28;20705;-74
2022/09/10 02:53:27;;;;;;;3.50;2.67;;;13.90;99.90;;;;;;5036268;28;20167;-73
2022/09/10 02:55:53;;;;;;;2.47;2.27;;;14.00;99.90;;;;;;5037781;28;20446;-73
2022/09/10 02:58:19;;;;;;;3.00;2.70;;;13.90;99.90;;;;;;5033444;28;20179;-73
2022/09/10 03:00:44;;;;;;;3.27;2.97;;;13.90;99.90;;;;;;5032985;28;20461;-74
2022/09/10 03:03:11;;;;;;;2.80;2.60;;;14.00;99.90;;;;;;5033266;28;20164;-73
2022/09/10 03:05:37;;;;;;;3.30;3.00;;;13.90;99.90;;;;;;5032616;28;20253;-73
2022/09/10 03:08:04;;;;;;;2.53;2.20;;;14.00;99.90;;;;;;5032366;28;20398;-74
2022/09/10 03:10:30;;;;;;;3.50;2.40;;;13.90;99.90;;;;;;5033334;28;20410;-73
2022/09/10 03:12:57;;;;;;;4.90;2.63;;;13.80;99.90;;;;;;5033165;28;20823;-73
2022/09/10 03:15:22;;;;;;;2.97;2.53;;;13.80;99.90;;;;;;5032507;28;20468;-72
2022/09/10 03:17:48;;;;;;;3.83;2.30;;;13.80;99.90;;;;;;5032484;28;20414;-73
2022/09/10 03:20:13;;;;;;;2.50;2.30;;;13.90;99.90;;;;;;5032553;28;20179;-74
2022/09/10 03:22:39;;;;;;;2.80;2.60;;;13.80;99.90;;;;;;5032740;28;20206;-73
2022/09/10 03:25:06;;;;;;;2.73;2.53;;;13.80;99.90;;;;;;5032288;28;20187;-73
2022/09/10 03:27:32;;;;;;;4.77;2.73;;;13.80;99.90;;;;;;5032547;28;20263;-73
2022/09/10 03:29:58;;;;;;;3.93;2.67;;;13.80;99.90;;;;;;5032495;28;20485;-72
2022/09/10 03:32:23;;;;;;;5.70;2.90;;;13.80;99.90;;;;;;5032537;28;20175;-73
2022/09/10 03:34:49;;;;;;;6.27;2.63;;;13.80;99.90;;;;;;5032243;28;20267;-73
2022/09/10 03:37:15;;;;;;;2.50;2.30;;;13.80;99.90;;;;;;5032599;28;20180;-72
2022/09/10 03:39:40;;;;;;;2.73;2.40;;;13.80;99.90;;;;;;5032330;28;20314;-72
2022/09/10 03:42:06;;;;;;;3.23;2.93;;;13.80;99.90;;;;;;5032383;28;20532;-73
2022/09/10 03:44:32;;;;;;;5.83;3.30;;;13.80;99.90;;;;;;5032217;28;20197;-73
2022/09/10 03:46:59;;;;;;;4.97;2.37;;;13.80;99.90;;;;;;5032130;28;20171;-73
2022/09/10 03:49:25;;;;;;;2.43;2.23;;;13.80;99.90;;;;;;5032156;28;20406;-73
2022/09/10 03:51:50;;;;;;;3.57;2.60;;;13.70;99.90;;;;;;5032462;28;20506;-73
2022/09/10 03:54:16;;;;;;;2.40;2.20;;;13.80;99.90;;;;;;5032520;28;20229;-72
2022/09/10 03:56:42;;;;;;;2.17;1.97;;;13.80;99.90;;;;;;5032006;28;20175;-72
2022/09/10 03:59:08;;;;;;;2.23;2.03;;;13.70;99.90;;;;;;5032202;28;20246;-73
2022/09/10 04:01:34;;;;;;;6.57;2.43;;;13.70;99.90;;;;;;5032381;28;20542;-73
2022/09/10 04:04:00;;;;;;;4.23;2.60;;;13.70;99.90;;;;;;5031823;28;20174;-73
2022/09/10 04:06:25;;;;;;;2.40;2.20;;;13.70;99.90;;;;;;5031896;28;20697;-73
2022/09/10 04:08:51;;;;;;;2.53;2.33;;;13.70;99.90;;;;;;5031906;28;20415;-73
2022/09/10 04:11:18;;;;;;;4.03;2.20;;;13.60;99.90;;;;;;5032120;28;20163;-73
2022/09/10 04:13:47;;;;;;;3.10;1.90;;;13.60;99.90;;;;;;5031975;28;20407;-72
2022/09/10 04:16:15;;;;;;;3.93;2.30;;;13.60;99.90;;;;;;5031382;28;20483;-72
2022/09/10 04:18:40;;;;;;;2.80;2.27;;;13.60;99.90;;;;;;5032939;28;20536;-74
2022/09/10 04:21:06;;;;;;;2.33;2.13;;;13.70;99.90;;;;;;5035970;28;20453;-74
2022/09/10 04:23:32;;;;;;;4.27;2.63;;;13.60;99.90;;;;;;5036304;28;20163;-73
2022/09/10 04:25:57;;;;;;;2.80;2.40;;;13.50;99.90;;;;;;5038516;28;20185;-73
2022/09/10 04:28:23;;;;;;;2.80;2.27;;;13.50;99.90;;;;;;5042725;28;20163;-72
2022/09/10 04:30:50;;;;;;;4.10;2.23;;;13.50;99.90;;;;;;5038882;28;20683;-74
2022/09/10 04:33:15;;;;;;;2.90;1.93;;;13.50;99.90;;;;;;5035820;28;20182;-72
2022/09/10 04:35:42;;;;;;;2.63;2.43;;;13.50;99.90;;;;;;5035454;28;20422;-72
2022/09/10 04:38:08;;;;;;;2.30;1.90;;;13.50;99.90;;;;;;5036201;28;20535;-73
2022/09/10 04:40:34;;;;;;;3.60;2.20;;;13.50;99.90;;;;;;5042082;28;20448;-73
2022/09/10 04:43:00;;;;;;;2.33;2.13;;;13.40;99.90;;;;;;5040379;28;20943;-72
2022/09/10 04:45:25;;;;;;;2.80;2.43;;;13.50;99.90;;;;;;5035105;28;20418;-72
2022/09/10 04:47:53;;;;;;;6.63;2.37;;;13.40;99.90;;;;;;5035388;28;20247;-73
2022/09/10 04:50:19;;;;;;;3.40;2.17;;;13.40;99.90;;;;;;5035326;28;20160;-72
2022/09/10 04:52:44;;;;;;;5.20;2.10;;;13.40;99.90;;;;;;5035437;28;20769;-74
2022/09/10 04:55:10;;;;;;;4.13;2.37;;;13.40;99.90;;;;;;5017470;28;20464;-74
2022/09/10 04:57:37;;;;;;;2.50;2.10;;;13.50;99.90;;;;;;5035303;28;20187;-72
2022/09/10 05:00:06;;;;;;;5.00;2.50;;;13.50;99.90;;;;;;5035036;28;20402;-73
2022/09/10 05:02:32;;;;;;;2.17;1.93;;;13.60;99.90;;;;;;5035208;28;20932;-73
2022/09/10 05:04:58;;;;;;;2.37;2.17;;;13.60;99.90;;;;;;5035076;28;20418;-73
2022/09/10 05:07:23;;;;;;;2.80;2.13;;;13.60;99.90;;;;;;5035093;28;20638;-73
2022/09/10 05:09:49;;;;;;;2.23;2.07;;;13.60;99.90;;;;;;5034933;28;20245;-73
2022/09/10 05:12:14;;;;;;;4.00;2.30;;;13.70;99.90;;;;;;5034947;28;20167;-73
2022/09/10 05:14:41;;;;;;;5.30;2.20;;;13.70;99.90;;;;;;5035336;28;20310;-73
2022/09/10 05:17:06;;;;;;;4.27;2.83;;;13.70;99.90;;;;;;5034985;28;20179;-73
2022/09/10 05:19:32;;;;;;;10.03;2.97;;;13.70;99.90;;;;;;5034995;28;20786;-73
2022/09/10 05:21:57;;;;;;;6.70;2.80;;;13.70;99.90;;;;;;5034744;28;20241;-74
2022/09/10 05:24:23;;;;;;;3.20;2.60;;;13.80;99.90;;;;;;5016962;28;20414;-73
2022/09/10 05:26:48;;;;;;;4.13;3.70;;;13.80;99.90;;;;;;5034753;28;20254;-73
2022/09/10 05:29:15;;;;;;;4.40;4.00;;;13.80;99.90;;;;;;5034154;28;20258;-73
2022/09/10 05:31:41;;;;;;;2.23;2.13;;;13.80;99.90;;;;;;5034859;28;20176;-73
2022/09/10 05:34:07;;;;;;;5.53;2.07;;;13.90;99.90;;;;;;5034675;28;20436;-73
2022/09/10 05:36:32;;;;;;;2.80;2.40;;;13.90;99.90;;;;;;5034592;28;20179;-73
2022/09/10 05:38:59;;;;;;;5.30;2.60;;;14.00;99.90;;;;;;5034573;28;20402;-73
2022/09/10 05:41:26;;;;;;;2.43;2.13;;;14.00;99.90;;;;;;5034229;28;20187;-73
2022/09/10 05:43:52;;;;;;;2.27;2.00;;;14.10;99.90;;;;;;5034196;28;20399;-72
2022/09/10 05:46:18;;;;;;;2.80;2.07;;;14.10;99.90;;;;;;5034020;28;20445;-73
2022/09/10 05:48:43;;;;;;;3.77;1.90;;;14.50;99.90;;;;;;5034284;28;20161;-73
2022/09/10 05:51:09;;;;;;;2.73;1.70;;;14.90;99.90;;;;;;5034537;28;20178;-73
2022/09/10 05:53:34;;;;;;;3.50;1.63;;;15.20;99.90;;;;;;5034318;28;20223;-73
2022/09/10 05:56:00;;;;;;;2.33;1.70;;;15.90;99.90;;;;;;5033873;28;20207;-72
2022/09/10 05:58:29;;;;;;;2.93;1.90;;;16.50;99.90;;;;;;5034085;28;20710;-72
2022/09/10 06:00:56;;;;;;;2.80;1.40;;;17.10;99.90;;;;;;5034340;28;20252;-73
2022/09/10 06:03:22;;;;;;;2.80;1.30;;;17.50;99.90;;;;;;5034161;28;20409;-72
2022/09/10 06:05:51;;;;;;;2.60;1.87;;;18.00;99.90;;;;;;5034295;28;20425;-73
2022/09/10 06:08:20;;;;;;;2.67;1.83;;;18.00;99.90;;;;;;5034440;28;20225;-73
2022/09/10 06:10:56;;;;;;;2.00;1.40;;;18.30;99.90;;;;;;5000048;28;20424;-72
2022/09/10 06:13:22;;;;;;;1.40;1.30;;;18.50;99.90;;;;;;5033838;28;20407;-73
2022/09/10 06:15:47;;;;;;;2.73;1.70;;;18.70;99.90;;;;;;5033734;28;20429;-72
2022/09/10 06:18:13;;;;;;;1.77;1.47;;;19.10;99.90;;;;;;5034069;28;20402;-72
2022/09/10 06:20:39;;;;;;;2.33;1.53;;;19.80;99.90;;;;;;5034133;28;20697;-73
2022/09/10 06:23:04;;;;;;;4.17;2.17;;;20.00;99.90;;;;;;5035285;28;20164;-73
2022/09/10 06:25:30;;;;;;;5.20;3.00;;;20.30;99.90;;;;;;5036416;28;20265;-73
2022/09/10 06:27:55;;;;;;;1.20;1.10;;;20.50;99.90;;;;;;5035315;28;20173;-73
2022/09/10 06:30:21;;;;;;;2.40;1.57;;;20.50;99.90;;;;;;5016594;28;20173;-74
2022/09/10 06:32:46;;;;;;;1.47;1.27;;;20.10;99.90;;;;;;5033871;28;20190;-74
2022/09/10 06:35:12;;;;;;;5.17;1.40;;;20.60;99.90;;;;;;5015653;28;20196;-74
2022/09/10 06:37:38;;;;;;;3.30;1.70;;;20.60;99.90;;;;;;5033719;28;20175;-75
2022/09/10 06:40:04;;;;;;;1.83;1.20;;;20.60;99.90;;;;;;5033481;28;20768;-74
2022/09/10 06:42:31;;;;;;;1.20;1.10;;;21.20;99.90;;;;;;5032573;28;20236;-74
2022/09/10 06:44:59;;;;;;;3.43;1.53;;;21.60;99.90;;;;;;5015744;28;20594;-74
2022/09/10 06:47:25;;;;;;;1.97;1.20;;;20.90;99.90;;;;;;5033464;28;20451;-73
2022/09/10 06:49:51;;;;;;;1.90;1.63;;;20.80;99.90;;;;;;5033540;28;20828;-74
2022/09/10 06:52:16;;;;;;;1.90;1.33;;;20.40;99.90;;;;;;5033224;28;20408;-73
2022/09/10 06:54:42;;;;;;;2.07;1.27;;;21.40;99.90;;;;;;5032863;28;21052;-73
2022/09/10 06:57:08;;;;;;;3.50;2.20;;;21.70;99.90;;;;;;5033056;28;20294;-73
2022/09/10 06:59:33;;;;;;;2.83;1.23;;;21.70;99.90;;;;;;5032951;28;20194;-73
2022/09/10 07:02:00;;;;;;;3.37;1.40;;;22.00;99.90;;;;;;5033085;28;20285;-74
2022/09/10 07:04:26;;;;;;;4.93;3.03;;;22.20;99.90;;;;;;5014926;28;20199;-73
2022/09/10 07:06:52;;;;;;;4.80;3.03;;;21.90;99.90;;;;;;5032866;28;20765;-73
2022/09/10 07:09:18;;;;;;;2.03;1.83;;;21.50;99.90;;;;;;5032755;28;20172;-74
2022/09/10 07:11:43;;;;;;;2.80;1.80;;;22.20;99.90;;;;;;5032878;28;20171;-74
2022/09/10 07:14:11;;;;;;;4.97;1.60;;;23.20;99.90;;;;;;5032671;28;20544;-74
2022/09/10 07:16:40;;;;;;;2.30;1.87;;;24.00;99.90;;;;;;5033392;28;20217;-75
2022/09/10 07:19:06;;;;;;;6.97;2.20;;;23.30;99.90;;;;;;5033102;28;20414;-75
2022/09/10 07:21:35;;;;;;;2.70;1.70;;;22.30;99.90;;;;;;5015697;28;20450;-74
2022/09/10 07:24:01;;;;;;;2.13;1.87;;;21.80;99.90;;;;;;5032835;28;20398;-74
2022/09/10 07:26:27;;;;;;;1.43;1.30;;;21.90;99.90;;;;;;5032507;28;21034;-74
2022/09/10 07:28:53;;;;;;;2.40;2.07;;;22.20;99.90;;;;;;5032616;28;20634;-73
2022/09/10 07:31:26;;;;;;;2.73;1.90;;;22.60;99.90;;;;;;5032564;28;20492;-74
2022/09/10 07:33:53;;;;;;;3.10;1.50;;;23.60;99.90;;;;;;5032747;28;20907;-74
2022/09/10 07:36:19;;;;;;;2.13;1.40;;;24.00;99.90;;;;;;5032941;28;20426;-74
2022/09/10 07:38:45;;;;;;;2.17;1.47;;;23.00;99.90;;;;;;5032611;28;20932;-73
2022/09/10 07:41:12;;;;;;;4.00;1.80;;;23.40;99.90;;;;;;5032783;28;20460;-74
2022/09/10 07:43:39;;;;;;;2.47;2.00;;;23.80;99.90;;;;;;5033890;28;20262;-73
2022/09/10 07:46:06;;;;;;;3.80;2.23;;;24.80;99.90;;;;;;5016453;28;21007;-74
2022/09/10 07:48:33;;;;;;;2.83;2.63;;;24.40;99.90;;;;;;5032291;28;20925;-74
2022/09/10 07:51:03;;;;;;;2.07;1.77;;;23.70;99.90;;;;;;5014596;28;20492;-73
2022/09/10 07:53:29;;;;;;;3.50;1.40;;;23.90;99.90;;;;;;5032365;28;20402;-74
2022/09/10 07:55:59;;;;;;;1.50;1.40;;;24.30;99.90;;;;;;5032595;23;20901;-68
2022/09/10 07:58:26;;;;;;;2.50;1.43;;;24.30;99.90;;;;;;5012105;28;20403;-68
2022/09/10 08:00:52;;;;;;;1.90;1.50;;;23.10;99.90;;;;;;5012066;28;20455;-69
2022/09/10 08:03:20;;;;;;;5.20;1.90;;;23.50;99.90;;;;;;5011983;28;20402;-68
2022/09/10 08:05:47;;;;;;;3.97;1.70;;;23.70;99.90;;;;;;5012046;28;20426;-68
2022/09/10 08:08:12;;;;;;;2.40;1.63;;;24.90;99.90;;;;;;5012227;28;20407;-68
2022/09/10 08:10:38;;;;;;;6.53;2.33;;;23.30;99.90;;;;;;5012106;28;20783;-68
2022/09/10 08:13:03;;;;;;;1.90;1.63;;;23.30;99.90;;;;;;5012114;28;20176;-68
2022/09/10 08:15:29;;;;;;;2.70;2.10;;;23.80;99.90;;;;;;5011888;28;20283;-68
2022/09/10 08:17:55;;;;;;;2.93;2.13;;;24.00;99.90;;;;;;5012291;28;20275;-69
2022/09/10 08:20:24;;;;;;;2.93;2.03;;;24.30;99.90;;;;;;5012011;28;20436;-68
2022/09/10 08:22:49;;;;;;;2.80;1.50;;;24.90;99.90;;;;;;5012207;28;20751;-68
2022/09/10 08:25:15;;;;;;;2.10;1.77;;;24.40;99.90;;;;;;5011643;28;20438;-68
2022/09/10 08:27:41;;;;;;;4.00;2.17;;;24.40;99.90;;;;;;5011929;28;20180;-69
2022/09/10 08:30:08;;;;;;;3.10;1.40;;;24.70;99.90;;;;;;5012246;28;20164;-69
2022/09/10 08:32:34;;;;;;;3.70;2.07;;;24.10;99.90;;;;;;5011897;28;20407;-69
2022/09/10 08:35:02;;;;;;;2.33;1.30;;;23.40;99.90;;;;;;5012133;28;20441;-67
2022/09/10 08:37:29;;;;;;;3.23;1.80;;;23.00;99.90;;;;;;5012085;28;20411;-68
2022/09/10 08:39:55;;;;;;;2.50;1.20;;;24.50;99.90;;;;;;5012056;28;20434;-68
2022/09/10 08:42:31;;;;;;;1.10;0.90;;;23.70;99.90;;;;;;5011973;28;20484;-68
2022/09/10 08:45:07;;;;;;;4.33;1.40;;;25.20;99.90;;;;;;5011869;28;20187;-68
2022/09/10 08:48:05;;;;;;;1.90;1.20;;;24.40;99.90;;;;;;5012004;28;20405;-69
2022/09/10 08:50:56;;;;;;;1.40;1.13;;;23.90;99.90;;;;;;5011979;28;20915;-69
2022/09/10 08:53:45;;;;;;;2.40;1.37;;;24.80;99.90;;;;;;5011795;28;20411;-69
2022/09/10 08:56:15;;;;;;;1.60;1.50;;;24.90;99.90;;;;;;5011263;28;20431;-68
2022/09/10 08:58:42;;;;;;;2.80;1.40;;;24.00;99.90;;;;;;5011904;28;20395;-68
2022/09/10 09:01:19;;;;;;;3.80;1.50;;;25.40;99.90;;;;;;5011756;28;20451;-68
2022/09/10 09:03:46;;;;;;;2.37;1.67;;;25.10;99.90;;;;;;5011691;28;20414;-68
2022/09/10 09:06:38;;;;;;;2.20;1.50;;;25.20;99.90;;;;;;5014896;28;20464;-69
2022/09/10 09:09:04;;;;;;;3.00;1.50;;;24.90;99.90;;;;;;5015529;28;20403;-68
2022/09/10 09:11:56;;;;;;;2.23;1.23;;;24.90;99.90;;;;;;5015725;28;21017;-68
2022/09/10 09:14:44;;;;;;;2.40;1.20;;;25.10;99.90;;;;;;5015174;28;20775;-68
2022/09/10 09:17:37;;;;;;;1.73;1.00;;;24.80;99.90;;;;;;5015166;28;20414;-69
2022/09/10 09:20:41;;;;;;;2.60;1.30;;;24.60;99.90;;;;;;5014863;28;20442;-69
2022/09/10 09:23:16;;;;;;;1.67;1.20;;;23.80;99.90;;;;;;5011932;28;20774;-71
2022/09/10 09:25:52;;;;;;;1.53;1.10;;;23.00;99.90;;;;;;5014505;28;20948;-69
2022/09/10 09:28:40;;;;;;;1.87;1.13;;;23.50;99.90;;;;;;5014871;28;20403;-69
2022/09/10 09:31:15;;;;;;;2.17;0.90;;;23.60;99.90;;;;;;5014993;28;20411;-68
2022/09/10 09:33:44;;;;;;;4.03;1.20;;;22.70;99.90;;;;;;5014632;28;20885;-68
2022/09/10 09:36:15;;;;;;;1.30;1.20;;;23.30;99.90;;;;;;5014521;28;20434;-68
2022/09/10 09:38:50;;;;;;;2.47;1.40;;;23.00;99.90;;;;;;5014580;28;20925;-68
2022/09/10 09:41:25;;;;;;;3.07;1.43;;;22.60;99.90;;;;;;5014318;28;20446;-69
2022/09/10 09:43:56;;;;;;;4.03;1.67;;;23.00;99.90;;;;;;5014570;28;20947;-68
2022/09/10 09:46:23;;;;;;;4.03;2.17;;;23.90;99.90;;;;;;5014360;28;20455;-69
2022/09/10 09:48:54;;;;;;;3.47;2.17;;;23.80;99.90;;;;;;5014294;28;20399;-68
2022/09/10 09:51:20;;;;;;;2.70;1.30;;;24.00;99.90;;;;;;5014359;28;20409;-68
2022/09/10 09:54:14;;;;;;;2.30;1.27;;;23.00;99.90;;;;;;5014156;28;20411;-68
2022/09/10 09:56:49;;;;;;;2.47;1.47;;;21.80;99.90;;;;;;5008169;28;20588;-68
2022/09/10 09:59:29;;;;;;;4.87;1.33;;;22.40;99.90;;;;;;5014317;28;20948;-68
2022/09/10 10:02:09;;;;;;;3.00;1.10;;;22.70;99.90;;;;;;5014219;28;20455;-68
2022/09/10 10:04:35;;;;;;;2.67;1.40;;;22.30;99.90;;;;;;5014108;28;20425;-69
2022/09/10 10:07:02;;;;;;;1.67;1.10;;;22.00;99.90;;;;;;5013954;28;20417;-69
2022/09/10 10:09:33;;;;;;;1.23;1.13;;;21.50;99.90;;;;;;5014054;28;20417;-68
2022/09/10 10:12:03;;;;;;;3.20;1.90;;;21.40;99.90;;;;;;5013989;28;20407;-68
2022/09/10 10:14:31;;;;;;;1.67;1.00;;;21.80;99.90;;;;;;5013606;28;20598;-68
2022/09/10 10:16:59;;;;;;;7.40;1.37;;;21.80;99.90;;;;;;5012777;28;20776;-68
2022/09/10 10:19:39;;;;;;;2.60;1.00;;;21.70;99.90;;;;;;5013869;28;20418;-68
2022/09/10 10:22:15;;;;;;;1.60;1.30;;;21.90;99.90;;;;;;5013633;28;20923;-68
2022/09/10 10:24:42;;;;;;;2.30;1.00;;;22.10;99.90;;;;;;5013416;28;20792;-68
2022/09/10 10:27:36;;;;;;;1.43;1.07;;;22.30;99.90;;;;;;5013346;28;20819;-68
2022/09/10 10:30:17;;;;;;;0.90;0.80;;;22.90;99.90;;;;;;5013504;28;20414;-68
2022/09/10 10:32:58;;;;;;;2.73;1.30;;;22.60;99.90;;;;;;5013608;28;20409;-68
2022/09/10 10:35:33;;;;;;;1.77;0.90;;;22.80;99.90;;;;;;5013097;28;20429;-68
2022/09/10 10:38:30;;;;;;;2.10;1.90;;;22.70;99.90;;;;;;5013399;28;20409;-68
2022/09/10 10:41:26;;;;;;;0.90;0.90;;;22.90;99.90;;;;;;5013263;28;20503;-68
2022/09/10 10:44:10;;;;;;;1.03;0.80;;;22.60;99.90;;;;;;5013248;28;20912;-68
2022/09/10 10:46:38;;;;;;;1.23;0.80;;;21.90;99.90;;;;;;5013061;28;20928;-68
2022/09/10 10:49:19;;;;;;;1.00;0.80;;;22.10;99.90;;;;;;5013178;28;20404;-68
2022/09/10 10:51:59;;;;;;;1.67;1.00;;;22.10;99.90;;;;;;5013113;28;20410;-68
2022/09/10 10:54:24;;;;;;;0.97;0.87;;;22.50;99.90;;;;;;5012968;28;20417;-68
2022/09/10 10:57:17;;;;;;;1.43;0.90;;;22.60;99.90;;;;;;5012821;28;20436;-67
2022/09/10 10:59:59;;;;;;;0.83;0.80;;;22.40;99.90;;;;;;5013266;28;20706;-68
2022/09/10 11:02:37;;;;;;;1.87;0.90;;;22.20;99.90;;;;;;5012897;28;20460;-68
2022/09/10 11:05:44;;;;;;;1.00;0.90;;;22.10;99.90;;;;;;5012940;28;20929;-68
2022/09/10 11:08:19;;;;;;;1.83;0.90;;;22.20;99.90;;;;;;5012464;28;20418;-69
2022/09/10 11:10:59;;;;;;;2.40;1.07;;;22.10;99.90;;;;;;5012851;28;20438;-68
2022/09/10 11:13:38;;;;;;;0.93;0.73;;;22.00;99.90;;;;;;5012900;28;20785;-68
2022/09/10 11:16:22;;;;;;;1.10;0.90;;;22.90;99.90;;;;;;5012634;28;20427;-68
2022/09/10 11:18:52;;;;;;;1.00;0.80;;;23.00;99.90;;;;;;5012892;28;20410;-68
2022/09/10 11:21:24;;;;;;;1.13;1.00;;;23.30;99.90;;;;;;5012302;28;20450;-68
2022/09/10 11:23:53;;;;;;;3.80;1.27;;;22.70;99.90;;;;;;5012648;28;20765;-68
2022/09/10 11:26:30;;;;;;;2.77;1.10;;;22.40;99.90;;;;;;5012560;28;20473;-68
2022/09/10 11:29:17;;;;;;;2.87;1.27;;;22.20;99.90;;;;;;5011981;28;20828;-67
2022/09/10 11:31:48;;;;;;;1.03;0.83;;;22.30;99.90;;;;;;5012352;28;20414;-68
2022/09/10 11:34:50;;;;;;;0.90;0.87;;;22.00;99.90;;;;;;5012403;28;20916;-68
2022/09/10 11:37:27;;;;;;;1.97;1.10;;;22.10;99.90;;;;;;5012252;28;20409;-68
2022/09/10 11:39:57;;;;;;;1.27;0.80;;;23.10;99.90;;;;;;5012278;28;20829;-67
2022/09/10 11:42:39;;;;;;;2.00;1.10;;;23.50;99.90;;;;;;5012642;28;20461;-68
2022/09/10 11:45:31;;;;;;;2.30;1.43;;;23.70;99.90;;;;;;5012511;28;20433;-68
2022/09/10 11:48:09;;;;;;;2.13;1.30;;;24.00;99.90;;;;;;5012820;28;20401;-68
2022/09/10 11:50:44;;;;;;;2.70;1.90;;;23.80;99.90;;;;;;5012203;28;20415;-68
2022/09/10 11:53:18;;;;;;;1.63;1.00;;;23.50;99.90;;;;;;5012369;28;20409;-68
2022/09/10 11:56:10;;;;;;;3.07;1.97;;;23.70;99.90;;;;;;5011929;28;20485;-68
2022/09/10 11:59:14;;;;;;;1.57;1.00;;;23.60;99.90;;;;;;5012338;28;20425;-68
2022/09/10 12:01:51;;;;;;;1.87;1.10;;;23.50;99.90;;;;;;4978681;28;20984;-68
2022/09/10 12:04:39;;;;;;;2.40;1.20;;;23.70;99.90;;;;;;5011985;28;20407;-68
2022/09/10 12:07:32;;;;;;;2.47;1.20;;;24.00;99.90;;;;;;5012008;28;20414;-68
2022/09/10 12:10:06;;;;;;;1.17;0.90;;;23.80;99.90;;;;;;5012459;28;20460;-68
2022/09/10 12:12:48;;;;;;;2.30;2.10;;;23.50;99.90;;;;;;5012254;28;20417;-68
2022/09/10 12:15:19;;;;;;;1.13;1.03;;;22.70;99.90;;;;;;5012004;28;20557;-68
2022/09/10 12:17:49;;;;;;;1.37;1.27;;;22.80;99.90;;;;;;5012170;28;20406;-68
2022/09/10 12:20:20;;;;;;;1.13;0.80;;;22.40;99.90;;;;;;5012212;28;21055;-68
2022/09/10 12:22:53;;;;;;;1.00;0.90;;;22.00;99.90;;;;;;5011999;28;20411;-68
2022/09/10 12:25:18;;;;;;;2.03;1.30;;;22.20;99.90;;;;;;5011708;28;20426;-67
2022/09/10 12:27:55;;;;;;;1.70;1.60;;;22.30;99.90;;;;;;5011884;28;20402;-68
2022/09/10 12:30:23;;;;;;;2.10;1.20;;;22.40;99.90;;;;;;5012040;28;20512;-70
2022/09/10 12:32:51;;;;;;;2.20;1.17;;;22.80;99.90;;;;;;5011773;28;20493;-69
2022/09/10 12:36:03;;;;;;;2.40;1.20;;;22.80;99.90;;;;;;5011868;28;20422;-69
2022/09/10 12:38:48;;;;;;;1.33;1.23;;;22.90;99.90;;;;;;5008845;28;20441;-69
2022/09/10 12:41:22;;;;;;;1.73;1.00;;;22.60;99.90;;;;;;5015313;28;20526;-69
2022/09/10 12:43:47;;;;;;;1.37;1.13;;;22.80;99.90;;;;;;5015492;28;20417;-69
2022/09/10 12:46:13;;;;;;;2.43;1.23;;;23.00;99.90;;;;;;5015275;28;20419;-69
2022/09/10 12:48:43;;;;;;;1.20;1.10;;;22.30;99.90;;;;;;5015421;28;20172;-69
2022/09/10 12:51:18;;;;;;;3.27;1.10;;;22.60;99.90;;;;;;5015713;28;20180;-68
2022/09/10 12:54:00;;;;;;;2.20;1.13;;;23.00;99.90;;;;;;5015549;28;20424;-68
2022/09/10 12:56:38;;;;;;;1.30;1.10;;;23.30;99.90;;;;;;5015055;28;20461;-68
2022/09/10 12:59:22;;;;;;;1.20;1.10;;;22.90;99.90;;;;;;5015196;28;20445;-68
2022/09/10 13:01:50;;;;;;;1.73;1.30;;;22.90;99.90;;;;;;5015315;28;20532;-68
2022/09/10 13:04:33;;;;;;;1.10;1.00;;;23.60;99.90;;;;;;5014876;28;20440;-67
2022/09/10 13:07:17;;;;;;;1.73;0.90;;;23.50;99.90;;;;;;5015034;28;20399;-68
2022/09/10 13:09:43;;;;;;;1.10;1.00;;;23.20;99.90;;;;;;5014992;28;20393;-68